Time;durP1;ratioP1;P1;durP2;ratioP2;P2;SDS_P1;SDS_P2;PMS_P1;PMS_P2;Temp;Humidity;BMP_temperature;BMP_pressure;BME280_temperature;BME280_humidity;BME280_pressure;Samples;Min_cycle;Max_cycle;Signal;HPM_P1;HPM_P2
2022/05/13 00:01:42;;;;;;;4.63;4.20;;;20.30;99.90;;;;;;5010133;28;20574;-74
2022/05/13 00:04:10;;;;;;;4.53;4.07;;;20.20;99.90;;;;;;5004895;28;20270;-74
2022/05/13 00:06:37;;;;;;;4.10;3.70;;;20.10;99.90;;;;;;5000205;28;20234;-74
2022/05/13 00:09:06;;;;;;;4.78;3.80;;;20.00;99.90;;;;;;5002068;28;20208;-74
2022/05/13 00:11:33;;;;;;;4.40;3.97;;;20.00;99.90;;;;;;5009069;28;20579;-73
2022/05/13 00:14:00;;;;;;;4.60;4.20;;;20.00;99.90;;;;;;5001728;28;20224;-75
2022/05/13 00:16:27;;;;;;;4.38;3.97;;;20.00;99.90;;;;;;5004776;28;20263;-75
2022/05/13 00:18:54;;;;;;;3.85;3.50;;;20.00;99.90;;;;;;5002768;28;20287;-73
2022/05/13 00:21:22;;;;;;;3.80;3.50;;;20.00;99.90;;;;;;5003832;28;20622;-73
2022/05/13 00:23:49;;;;;;;3.40;3.10;;;20.00;99.90;;;;;;5020413;28;20203;-74
2022/05/13 00:26:17;;;;;;;4.85;3.70;;;20.00;99.90;;;;;;5003152;28;20225;-73
2022/05/13 00:28:44;;;;;;;3.45;3.15;;;20.00;99.90;;;;;;5006181;28;20213;-74
2022/05/13 00:31:12;;;;;;;3.83;3.53;;;20.00;99.90;;;;;;5002794;28;20216;-74
2022/05/13 00:33:40;;;;;;;2.90;2.70;;;20.10;99.90;;;;;;5003424;28;20591;-72
2022/05/13 00:36:07;;;;;;;4.15;3.78;;;20.10;99.90;;;;;;5005715;28;20228;-72
2022/05/13 00:38:34;;;;;;;3.83;3.53;;;20.10;99.90;;;;;;5003730;28;20638;-73
2022/05/13 00:41:01;;;;;;;3.65;3.30;;;20.10;99.90;;;;;;4997824;28;20224;-74
2022/05/13 00:43:52;;;;;;;4.03;3.63;;;20.00;99.90;;;;;;5003883;28;20209;-74
2022/05/13 00:46:20;;;;;;;4.32;3.92;;;20.00;99.90;;;;;;5005692;28;20220;-74
2022/05/13 00:48:48;;;;;;;5.82;4.00;;;19.90;99.90;;;;;;5001092;28;20197;-74
2022/05/13 00:51:19;;;;;;;4.57;3.97;;;19.90;99.90;;;;;;5002175;28;20714;-73
2022/05/13 00:53:47;;;;;;;3.60;3.30;;;19.90;99.90;;;;;;5001424;28;20209;-73
2022/05/13 00:56:14;;;;;;;3.17;2.97;;;19.90;99.90;;;;;;5007812;28;20274;-73
2022/05/13 00:58:46;;;;;;;3.72;3.42;;;20.00;99.90;;;;;;5002622;28;20699;-73
2022/05/13 01:01:15;;;;;;;3.45;3.15;;;20.10;99.90;;;;;;5002679;28;20221;-74
2022/05/13 01:03:44;;;;;;;3.75;3.45;;;20.10;99.90;;;;;;5008747;28;20204;-73
2022/05/13 01:06:14;;;;;;;4.20;3.80;;;20.10;99.90;;;;;;4999400;28;20235;-73
2022/05/13 01:08:41;;;;;;;4.22;3.40;;;20.00;99.90;;;;;;4997651;28;20211;-75
2022/05/13 01:11:15;;;;;;;4.18;3.38;;;20.00;99.90;;;;;;5006230;28;21021;-74
2022/05/13 01:13:44;;;;;;;3.63;3.33;;;20.10;99.90;;;;;;5003141;28;20250;-74
2022/05/13 01:16:11;;;;;;;4.95;3.47;;;20.00;99.90;;;;;;5016412;28;20245;-74
2022/05/13 01:18:39;;;;;;;4.05;3.55;;;20.10;99.90;;;;;;5000988;28;20196;-72
2022/05/13 01:21:10;;;;;;;3.35;3.05;;;20.00;99.90;;;;;;4992551;23;20249;-70
2022/05/13 01:23:41;;;;;;;4.22;3.45;;;20.00;99.90;;;;;;4961140;28;20563;-71
2022/05/13 01:26:10;;;;;;;3.53;3.22;;;20.00;99.90;;;;;;4973622;28;20372;-70
2022/05/13 01:28:39;;;;;;;3.33;3.13;;;19.90;99.90;;;;;;4983617;28;20204;-70
2022/05/13 01:31:08;;;;;;;3.55;3.25;;;19.90;99.90;;;;;;4971919;28;20233;-70
2022/05/13 01:33:36;;;;;;;3.90;3.33;;;19.90;99.90;;;;;;4969972;28;20245;-70
2022/05/13 01:36:06;;;;;;;3.85;3.45;;;19.80;99.90;;;;;;4975447;28;20229;-69
2022/05/13 01:38:36;;;;;;;3.63;3.33;;;19.70;99.90;;;;;;4982113;28;20726;-70
2022/05/13 01:41:06;;;;;;;3.65;3.35;;;19.70;99.90;;;;;;4982543;28;20685;-69
2022/05/13 01:43:34;;;;;;;3.88;3.58;;;19.70;99.90;;;;;;4983788;28;20203;-69
2022/05/13 01:46:02;;;;;;;3.67;3.38;;;19.70;99.90;;;;;;4982695;28;20633;-69
2022/05/13 01:48:30;;;;;;;4.10;3.35;;;19.60;99.90;;;;;;4985301;28;20251;-69
2022/05/13 01:50:57;;;;;;;4.28;3.50;;;19.50;99.90;;;;;;4979827;28;20257;-69
2022/05/13 01:53:24;;;;;;;4.03;3.72;;;19.50;99.90;;;;;;4984185;28;20208;-69
2022/05/13 01:55:52;;;;;;;4.72;3.72;;;19.50;99.90;;;;;;4986177;28;20233;-69
2022/05/13 01:58:22;;;;;;;4.22;3.40;;;19.50;99.90;;;;;;4986048;28;20201;-70
2022/05/13 02:00:51;;;;;;;3.97;3.58;;;19.50;99.90;;;;;;4984014;28;20727;-69
2022/05/13 02:06:04;;;;;;;4.40;4.00;;;19.50;99.90;;;;;;4985862;28;20772;-69
2022/05/13 02:08:32;;;;;;;4.72;4.30;;;19.40;99.90;;;;;;4990824;28;20197;-69
2022/05/13 02:10:59;;;;;;;3.85;3.50;;;19.50;99.90;;;;;;4983701;28;20232;-69
2022/05/13 02:13:28;;;;;;;3.78;3.47;;;19.40;99.90;;;;;;4988894;28;20746;-69
2022/05/13 02:15:55;;;;;;;3.67;3.38;;;19.50;99.90;;;;;;4987365;28;20229;-69
2022/05/13 02:18:23;;;;;;;4.47;4.07;;;19.50;99.90;;;;;;4987817;28;20201;-69
2022/05/13 02:20:50;;;;;;;4.20;3.90;;;19.40;99.90;;;;;;4988238;28;20239;-69
2022/05/13 02:23:20;;;;;;;3.80;3.50;;;19.50;99.90;;;;;;4990096;28;20197;-69
2022/05/13 02:25:48;;;;;;;4.05;3.75;;;19.50;99.90;;;;;;4987370;28;20307;-69
2022/05/13 02:28:15;;;;;;;4.15;3.72;;;19.50;99.90;;;;;;4986376;28;20733;-69
2022/05/13 02:30:44;;;;;;;4.38;3.97;;;19.40;99.90;;;;;;4985052;28;20225;-69
2022/05/13 02:33:11;;;;;;;4.57;4.18;;;19.50;99.90;;;;;;4984274;28;20201;-69
2022/05/13 02:35:38;;;;;;;4.32;3.85;;;19.40;99.90;;;;;;4987026;28;20301;-68
2022/05/13 02:38:05;;;;;;;3.80;3.50;;;19.50;99.90;;;;;;4987962;28;20657;-69
2022/05/13 02:43:17;;;;;;;4.90;4.25;;;19.40;99.90;;;;;;4993904;28;20203;-69
2022/05/13 02:45:46;;;;;;;4.47;4.07;;;19.40;99.90;;;;;;4987272;28;20225;-69
2022/05/13 02:48:13;;;;;;;4.10;3.80;;;19.30;99.90;;;;;;4992692;28;20208;-69
2022/05/13 02:50:40;;;;;;;4.07;3.75;;;19.30;99.90;;;;;;4991108;28;20626;-69
2022/05/13 02:53:07;;;;;;;3.92;3.58;;;19.20;99.90;;;;;;4988544;28;20205;-69
2022/05/13 02:55:34;;;;;;;4.32;4.00;;;19.20;99.90;;;;;;4982870;28;20271;-69
2022/05/13 02:58:01;;;;;;;4.35;3.95;;;19.20;99.90;;;;;;4986120;28;20197;-69
2022/05/13 03:00:29;;;;;;;4.63;4.20;;;19.10;99.90;;;;;;4991415;28;20237;-69
2022/05/13 03:02:58;;;;;;;4.50;4.20;;;19.10;99.90;;;;;;4989193;28;20755;-69
2022/05/13 03:05:26;;;;;;;5.20;4.47;;;19.10;99.90;;;;;;4990889;28;20681;-69
2022/05/13 03:07:53;;;;;;;5.53;4.72;;;19.00;99.90;;;;;;4986060;28;20201;-69
2022/05/13 03:10:20;;;;;;;4.47;4.07;;;18.90;99.90;;;;;;4988409;28;20715;-69
2022/05/13 03:12:47;;;;;;;5.13;4.63;;;18.90;99.90;;;;;;4989189;28;20260;-69
2022/05/13 03:15:15;;;;;;;4.13;3.83;;;18.80;99.90;;;;;;4983058;28;20208;-69
2022/05/13 03:17:42;;;;;;;4.35;4.05;;;18.80;99.90;;;;;;4984005;28;20201;-69
2022/05/13 03:20:17;;;;;;;4.55;4.15;;;18.80;99.90;;;;;;4984392;28;20232;-69
2022/05/13 03:22:44;;;;;;;5.32;4.15;;;18.80;99.90;;;;;;4987989;28;20205;-69
2022/05/13 03:25:11;;;;;;;4.40;4.10;;;18.70;99.90;;;;;;4982133;28;20198;-69
2022/05/13 03:27:38;;;;;;;4.90;4.50;;;18.70;99.90;;;;;;4990615;28;20200;-69
2022/05/13 03:30:08;;;;;;;4.43;4.03;;;18.60;99.90;;;;;;4988652;28;20217;-70
2022/05/13 03:32:35;;;;;;;4.65;4.20;;;18.60;99.90;;;;;;4992023;28;20722;-69
2022/05/13 03:35:02;;;;;;;5.30;3.97;;;18.60;99.90;;;;;;4982053;28;20220;-69
2022/05/13 03:37:30;;;;;;;4.28;3.97;;;18.60;99.90;;;;;;4986561;28;20646;-69
2022/05/13 03:39:58;;;;;;;4.40;4.00;;;18.60;99.90;;;;;;4985095;28;20279;-71
2022/05/13 03:42:25;;;;;;;4.90;4.45;;;18.60;99.90;;;;;;4989632;28;20235;-71
2022/05/13 03:44:52;;;;;;;4.53;3.90;;;18.60;99.90;;;;;;4985791;28;20771;-70
2022/05/13 03:47:19;;;;;;;4.30;3.90;;;18.50;99.90;;;;;;4985464;28;20268;-70
2022/05/13 03:49:47;;;;;;;4.57;4.18;;;18.50;99.90;;;;;;4985081;28;20267;-70
2022/05/13 03:52:15;;;;;;;4.78;4.38;;;18.50;99.90;;;;;;4986491;28;20224;-70
2022/05/13 03:54:43;;;;;;;4.72;4.32;;;18.60;99.90;;;;;;4984059;28;20268;-69
2022/05/13 03:57:11;;;;;;;5.57;4.57;;;18.60;99.90;;;;;;4985992;28;20223;-69
2022/05/13 03:59:38;;;;;;;4.72;4.25;;;18.60;99.90;;;;;;4984901;28;20197;-69
2022/05/13 04:02:05;;;;;;;4.40;4.10;;;18.60;99.90;;;;;;4981630;28;20778;-69
2022/05/13 04:08:56;;;;;;;4.35;3.97;;;18.60;99.90;;;;;;4987714;28;20779;-69
2022/05/13 04:10:09;;;;;;;5.30;4.80;;;18.60;99.90;;;;;;4985503;28;20240;-69
2022/05/13 04:18:05;;;;;;;4.88;4.50;;;18.60;99.90;;;;;;4986730;28;20199;-69
2022/05/13 04:20:34;;;;;;;4.95;4.20;;;18.60;99.90;;;;;;4983320;28;20286;-69
2022/05/13 04:23:02;;;;;;;5.30;4.80;;;18.60;99.90;;;;;;4984028;28;20213;-70
2022/05/13 04:25:30;;;;;;;7.00;4.70;;;18.60;99.90;;;;;;4985855;28;20214;-69
2022/05/13 04:27:57;;;;;;;5.07;4.68;;;18.60;99.90;;;;;;4981997;28;20198;-69
2022/05/13 04:30:25;;;;;;;4.93;4.25;;;18.60;99.90;;;;;;4993476;28;20221;-69
2022/05/13 04:32:52;;;;;;;5.75;5.07;;;18.60;99.90;;;;;;4983255;28;20619;-70
2022/05/13 04:35:19;;;;;;;4.88;4.47;;;18.60;99.90;;;;;;4985198;28;20670;-69
2022/05/13 04:37:46;;;;;;;5.15;4.68;;;18.70;99.90;;;;;;4981259;28;20249;-68
2022/05/13 04:40:13;;;;;;;4.95;4.55;;;18.70;99.90;;;;;;4983015;28;20228;-70
2022/05/13 04:42:50;;;;;;;5.60;5.10;;;18.70;99.90;;;;;;4988659;28;20212;-70
2022/05/13 04:45:23;;;;;;;6.25;4.55;;;18.70;99.90;;;;;;4984388;28;20192;-69
2022/05/13 04:50:36;;;;;;;4.55;4.15;;;18.90;99.90;;;;;;4983888;28;20279;-69
2022/05/13 04:53:03;;;;;;;4.63;4.22;;;18.90;99.90;;;;;;4986985;28;20267;-69
2022/05/13 04:55:30;;;;;;;4.80;4.40;;;19.00;99.90;;;;;;4988213;28;20197;-70
2022/05/13 04:57:59;;;;;;;5.45;4.63;;;19.10;99.90;;;;;;4986107;28;20201;-70
2022/05/13 05:00:26;;;;;;;4.97;4.57;;;19.10;99.90;;;;;;4988196;28;20678;-70
2022/05/13 05:02:54;;;;;;;5.18;4.72;;;19.20;99.90;;;;;;4979343;28;20320;-70
2022/05/13 05:05:21;;;;;;;5.70;4.93;;;19.20;99.90;;;;;;4985036;28;20241;-69
2022/05/13 05:07:49;;;;;;;5.30;4.80;;;19.30;99.90;;;;;;4984576;28;20287;-69
2022/05/13 05:10:18;;;;;;;5.57;5.10;;;19.50;99.90;;;;;;4983701;28;20225;-70
2022/05/13 05:12:47;;;;;;;5.03;4.63;;;19.60;99.90;;;;;;4988557;28;20606;-69
2022/05/13 05:15:15;;;;;;;6.22;5.22;;;19.70;99.90;;;;;;4992463;28;20256;-69
2022/05/13 05:17:42;;;;;;;5.75;5.20;;;19.90;99.90;;;;;;4983844;28;20644;-69
2022/05/13 05:20:10;;;;;;;5.13;4.60;;;20.10;99.90;;;;;;4987481;28;20232;-69
2022/05/13 05:22:38;;;;;;;6.00;5.50;;;20.20;99.90;;;;;;4985167;28;20216;-69
2022/05/13 05:25:06;;;;;;;5.22;4.72;;;20.30;99.90;;;;;;4986555;28;20331;-69
2022/05/13 05:27:35;;;;;;;5.53;4.97;;;20.50;99.90;;;;;;4985145;28;20228;-69
2022/05/13 05:30:04;;;;;;;5.20;4.72;;;20.60;99.90;;;;;;4991994;28;20782;-70
2022/05/13 05:32:33;;;;;;;6.50;5.90;;;20.80;99.90;;;;;;4991572;28;20747;-69
2022/05/13 05:35:00;;;;;;;7.50;6.10;;;20.90;99.90;;;;;;4990927;28;20263;-69
2022/05/13 05:37:27;;;;;;;5.90;5.40;;;20.90;99.90;;;;;;4991042;28;20735;-69
2022/05/13 05:39:54;;;;;;;7.50;5.95;;;21.00;99.90;;;;;;4992123;28;20220;-69
2022/05/13 05:42:21;;;;;;;6.97;5.97;;;21.00;99.90;;;;;;4984456;28;20217;-70
2022/05/13 05:44:48;;;;;;;6.57;5.93;;;21.10;99.90;;;;;;4989314;28;20663;-69
2022/05/13 05:47:16;;;;;;;6.45;5.80;;;21.10;99.90;;;;;;4987995;28;20220;-69
2022/05/13 05:49:44;;;;;;;6.38;5.82;;;21.20;99.90;;;;;;4987618;28;20206;-69
2022/05/13 05:52:11;;;;;;;6.82;6.00;;;21.20;99.90;;;;;;4984320;28;20221;-70
2022/05/13 05:57:23;;;;;;;6.63;6.03;;;21.00;99.90;;;;;;4978117;28;20251;-70
2022/05/13 05:59:50;;;;;;;6.30;5.80;;;20.90;99.90;;;;;;4981945;28;20201;-69
2022/05/13 06:02:18;;;;;;;6.57;6.07;;;20.60;99.90;;;;;;4978325;28;20221;-69
2022/05/13 06:04:47;;;;;;;6.57;5.97;;;20.40;99.90;;;;;;4983756;28;20216;-69
2022/05/13 06:07:16;;;;;;;6.50;5.90;;;20.30;99.90;;;;;;4987743;28;20547;-70
2022/05/13 06:09:44;;;;;;;6.50;6.00;;;20.20;99.90;;;;;;4983641;28;20201;-70
2022/05/13 06:12:14;;;;;;;8.48;6.60;;;20.30;99.90;;;;;;4990409;28;20753;-70
2022/05/13 06:14:41;;;;;;;6.93;6.32;;;20.60;99.90;;;;;;4982846;28;20237;-70
2022/05/13 06:17:09;;;;;;;6.65;6.05;;;20.70;99.90;;;;;;4983701;28;20220;-69
2022/05/13 06:19:37;;;;;;;7.70;6.65;;;21.00;99.90;;;;;;4984192;28;20817;-70
2022/05/13 06:22:06;;;;;;;8.35;6.53;;;21.20;99.90;;;;;;4982652;28;20287;-70
2022/05/13 06:24:35;;;;;;;7.00;6.28;;;21.50;99.90;;;;;;4988150;28;20205;-70
2022/05/13 06:27:02;;;;;;;7.82;6.93;;;21.80;99.90;;;;;;4981518;28;20747;-70
2022/05/13 06:29:30;;;;;;;6.65;6.05;;;22.10;99.90;;;;;;4985303;28;20208;-69
2022/05/13 06:31:59;;;;;;;7.68;6.88;;;22.30;99.90;;;;;;4981193;28;20563;-69
2022/05/13 06:34:26;;;;;;;7.72;6.85;;;22.50;99.90;;;;;;4979418;28;20200;-70
2022/05/13 06:36:53;;;;;;;9.05;6.72;;;22.50;99.90;;;;;;4978995;28;20217;-70
2022/05/13 06:39:21;;;;;;;8.73;7.28;;;22.40;99.90;;;;;;4986326;28;20208;-68
2022/05/13 06:41:48;;;;;;;7.72;7.03;;;22.30;99.90;;;;;;4987713;28;20224;-70
2022/05/13 06:44:18;;;;;;;7.32;6.63;;;22.30;99.90;;;;;;4985422;28;20652;-70
2022/05/13 06:46:47;;;;;;;8.90;7.10;;;22.30;99.90;;;;;;4980474;28;20216;-69
2022/05/13 06:49:15;;;;;;;6.63;6.03;;;22.40;99.90;;;;;;4981282;28;20197;-70
2022/05/13 06:51:42;;;;;;;7.13;6.53;;;22.40;99.90;;;;;;4981136;28;20229;-71
2022/05/13 06:54:10;;;;;;;7.53;6.82;;;22.60;99.90;;;;;;4983130;28;20557;-72
2022/05/13 06:56:41;;;;;;;11.05;7.57;;;22.80;99.90;;;;;;4979581;28;20301;-73
2022/05/13 06:59:09;;;;;;;7.65;6.93;;;22.70;99.90;;;;;;4985339;28;20227;-73
2022/05/13 07:01:36;;;;;;;7.07;6.47;;;22.80;99.90;;;;;;4986264;28;20223;-72
2022/05/13 07:04:04;;;;;;;13.13;7.15;;;22.80;99.90;;;;;;4985227;28;20252;-72
2022/05/13 07:06:31;;;;;;;9.60;7.13;;;22.90;99.90;;;;;;4983219;28;20233;-72
2022/05/13 07:08:58;;;;;;;7.40;6.60;;;22.90;99.90;;;;;;4984924;28;20929;-72
2022/05/13 07:11:25;;;;;;;7.88;7.10;;;22.90;99.90;;;;;;4984920;28;20934;-72
2022/05/13 07:13:54;;;;;;;7.80;7.10;;;23.00;99.90;;;;;;4984884;28;20664;-72
2022/05/13 07:16:22;;;;;;;7.05;6.40;;;23.10;99.90;;;;;;4986540;28;20287;-72
2022/05/13 07:18:50;;;;;;;8.00;6.30;;;23.30;99.90;;;;;;4987317;28;20196;-73
2022/05/13 07:21:17;;;;;;;7.82;6.32;;;23.40;99.90;;;;;;5014085;23;20232;-77
2022/05/13 07:23:44;;;;;;;9.40;6.95;;;23.60;99.90;;;;;;5023270;28;20199;-76
2022/05/13 07:26:12;;;;;;;7.72;7.03;;;23.70;99.90;;;;;;5029534;28;20238;-76
2022/05/13 07:28:39;;;;;;;7.45;6.75;;;23.80;99.90;;;;;;5030077;28;20422;-77
2022/05/13 07:31:08;;;;;;;11.45;6.93;;;23.90;99.90;;;;;;5020617;28;20200;-76
2022/05/13 07:33:36;;;;;;;8.70;7.90;;;24.10;99.90;;;;;;5002132;28;20261;-75
2022/05/13 07:36:04;;;;;;;7.50;6.30;;;24.10;99.90;;;;;;5003805;28;20200;-76
2022/05/13 07:38:32;;;;;;;7.10;6.50;;;24.10;99.90;;;;;;5006673;28;20221;-76
2022/05/13 07:43:53;;;;;;;6.78;6.18;;;24.40;99.90;;;;;;4967456;28;20220;-76
2022/05/13 07:46:24;;;;;;;8.55;7.07;;;24.50;99.90;;;;;;5012246;28;20635;-75
2022/05/13 07:48:51;;;;;;;11.45;6.35;;;24.70;99.90;;;;;;5000890;28;20252;-75
2022/05/13 07:51:19;;;;;;;9.13;7.00;;;24.90;99.90;;;;;;5002470;28;20806;-75
2022/05/13 07:53:46;;;;;;;9.73;7.10;;;25.00;99.90;;;;;;5001128;28;20231;-74
2022/05/13 07:56:14;;;;;;;7.20;6.18;;;24.80;99.90;;;;;;5003651;28;20200;-75
2022/05/13 07:58:41;;;;;;;6.65;6.03;;;24.90;99.90;;;;;;5006877;28;20480;-78
2022/05/13 08:01:08;;;;;;;7.15;6.10;;;24.80;99.90;;;;;;5002283;28;20702;-78
2022/05/13 08:03:36;;;;;;;7.70;6.68;;;24.80;99.90;;;;;;4996996;28;20276;-78
2022/05/13 08:06:04;;;;;;;11.75;7.43;;;24.80;99.90;;;;;;4999103;28;20734;-77
2022/05/13 08:08:35;;;;;;;7.55;6.85;;;24.70;99.90;;;;;;5003491;28;20306;-77
2022/05/13 08:11:05;;;;;;;7.80;6.70;;;24.80;99.90;;;;;;4999637;28;20196;-77
2022/05/13 08:13:34;;;;;;;6.30;5.70;;;24.80;99.90;;;;;;5005576;28;20228;-77
2022/05/13 08:16:02;;;;;;;8.80;6.95;;;24.90;99.90;;;;;;5006481;28;20223;-77
2022/05/13 08:18:30;;;;;;;6.53;5.93;;;25.00;99.90;;;;;;5007086;28;20578;-77
2022/05/13 08:20:58;;;;;;;9.13;6.70;;;25.20;99.90;;;;;;4992346;28;20886;-76
2022/05/13 08:23:26;;;;;;;9.10;7.45;;;25.50;99.90;;;;;;4995907;28;20224;-76
2022/05/13 08:25:53;;;;;;;9.93;6.63;;;25.50;99.90;;;;;;5002531;28;20208;-77
2022/05/13 08:28:23;;;;;;;6.63;6.00;;;25.50;99.90;;;;;;4997986;28;20231;-79
2022/05/13 08:30:51;;;;;;;6.30;5.80;;;25.40;99.90;;;;;;4993777;28;20779;-77
2022/05/13 08:33:21;;;;;;;7.75;7.03;;;25.40;99.90;;;;;;4996811;28;20290;-78
2022/05/13 08:35:51;;;;;;;7.68;6.50;;;25.50;99.90;;;;;;4997860;28;20674;-76
2022/05/13 08:38:22;;;;;;;7.32;6.72;;;25.60;99.90;;;;;;4997351;28;20773;-78
2022/05/13 08:41:18;;;;;;;7.50;6.40;;;25.70;99.90;;;;;;4996202;28;20276;-79
2022/05/13 08:43:50;;;;;;;7.53;6.82;;;25.70;99.90;;;;;;5002681;28;20211;-76
2022/05/13 08:46:28;;;;;;;7.15;6.13;;;25.90;99.90;;;;;;5004319;28;20207;-73
2022/05/13 08:49:04;;;;;;;7.15;6.45;;;26.00;99.90;;;;;;5001731;28;20645;-74
2022/05/13 08:51:40;;;;;;;7.13;6.50;;;26.00;99.90;;;;;;5005307;28;20251;-77
2022/05/13 08:54:14;;;;;;;7.53;6.82;;;26.10;99.90;;;;;;5001675;28;20638;-76
2022/05/13 08:56:43;;;;;;;7.18;6.50;;;26.10;99.90;;;;;;5000666;28;20196;-76
2022/05/13 08:59:14;;;;;;;6.65;6.13;;;26.30;99.90;;;;;;5004491;28;20224;-77
2022/05/13 09:01:47;;;;;;;7.43;6.60;;;26.40;99.90;;;;;;5000970;28;20220;-75
2022/05/13 09:04:22;;;;;;;7.82;7.07;;;26.30;99.90;;;;;;4997967;28;20278;-76
2022/05/13 09:06:55;;;;;;;7.60;6.90;;;26.50;99.90;;;;;;5002185;28;20191;-74
2022/05/13 09:09:23;;;;;;;6.25;5.65;;;26.60;99.90;;;;;;5006855;28;20224;-74
2022/05/13 09:11:58;;;;;;;8.00;6.68;;;26.80;99.90;;;;;;5004368;28;20672;-76
2022/05/13 09:14:34;;;;;;;6.45;5.85;;;26.90;99.90;;;;;;4980061;28;20218;-75
2022/05/13 09:17:36;;;;;;;8.88;6.35;;;26.90;99.90;;;;;;4978582;28;20204;-74
2022/05/13 09:20:07;;;;;;;7.95;6.90;;;26.90;99.90;;;;;;4998315;28;20238;-76
2022/05/13 09:22:37;;;;;;;9.52;6.50;;;27.10;99.90;;;;;;5000580;28;20228;-73
2022/05/13 09:25:08;;;;;;;7.03;6.47;;;26.90;99.90;;;;;;4999083;28;20212;-77
2022/05/13 09:27:59;;;;;;;9.70;7.13;;;26.70;99.90;;;;;;4999633;28;20727;-76
2022/05/13 09:30:33;;;;;;;8.55;6.38;;;27.00;99.90;;;;;;4994060;28;20232;-77
2022/05/13 09:33:19;;;;;;;9.40;6.55;;;27.30;99.90;;;;;;4999521;28;20223;-75
2022/05/13 09:35:48;;;;;;;9.60;6.75;;;27.40;99.90;;;;;;4996285;28;20310;-77
2022/05/13 09:38:18;;;;;;;7.65;6.50;;;27.40;99.90;;;;;;5005501;28;20255;-77
2022/05/13 09:40:58;;;;;;;6.60;5.78;;;27.40;99.90;;;;;;4998062;28;20363;-75
2022/05/13 09:43:37;;;;;;;6.80;5.95;;;27.40;99.90;;;;;;5000042;28;20209;-77
2022/05/13 09:46:07;;;;;;;6.35;5.75;;;27.50;99.90;;;;;;4997761;28;20226;-76
2022/05/13 09:48:38;;;;;;;11.68;6.53;;;27.50;99.90;;;;;;5004205;28;20478;-75
2022/05/13 09:51:23;;;;;;;6.30;5.63;;;27.40;99.90;;;;;;5001771;28;20232;-77
2022/05/13 09:54:06;;;;;;;7.28;6.60;;;27.40;99.90;;;;;;4999083;28;20452;-73
2022/05/13 09:56:41;;;;;;;9.57;6.97;;;27.60;99.90;;;;;;4996384;28;20255;-75
2022/05/13 09:59:17;;;;;;;6.68;6.07;;;27.70;99.90;;;;;;4996456;28;20259;-76
2022/05/13 10:01:44;;;;;;;9.45;6.32;;;27.60;99.90;;;;;;5009207;28;20215;-75
2022/05/13 10:04:14;;;;;;;9.98;5.88;;;27.30;99.90;;;;;;4998355;28;20196;-77
2022/05/13 10:06:42;;;;;;;6.97;6.28;;;27.40;99.90;;;;;;4996971;28;20227;-76
2022/05/13 10:14:45;;;;;;;9.50;7.38;;;27.90;99.90;;;;;;5003490;28;20204;-75
2022/05/13 10:17:15;;;;;;;7.03;6.32;;;28.20;99.90;;;;;;5007513;28;20726;-75
2022/05/13 10:19:46;;;;;;;9.25;7.40;;;27.80;99.90;;;;;;5002205;28;20208;-75
2022/05/13 10:22:21;;;;;;;6.38;5.82;;;27.60;99.90;;;;;;5003226;28;20240;-75
2022/05/13 10:24:54;;;;;;;5.85;5.35;;;27.50;99.90;;;;;;5007577;28;20240;-75
2022/05/13 10:27:31;;;;;;;8.02;6.35;;;28.00;99.90;;;;;;5003814;28;20196;-73
2022/05/13 10:30:05;;;;;;;7.63;6.80;;;28.10;99.90;;;;;;5004461;28;20204;-74
2022/05/13 10:32:44;;;;;;;7.28;6.00;;;28.20;99.90;;;;;;5003926;28;20235;-74
2022/05/13 10:35:16;;;;;;;7.10;6.40;;;28.30;99.90;;;;;;5005947;28;20220;-75
2022/05/13 10:37:59;;;;;;;9.35;5.65;;;28.20;99.90;;;;;;5000959;28;20237;-74
2022/05/13 10:40:32;;;;;;;5.53;4.95;;;28.10;99.90;;;;;;5000454;28;20224;-75
2022/05/13 10:43:05;;;;;;;6.82;5.10;;;28.30;99.90;;;;;;5003651;28;20243;-74
2022/05/13 10:45:35;;;;;;;6.80;6.03;;;28.40;99.90;;;;;;5003804;28;20219;-74
2022/05/13 10:48:16;;;;;;;7.53;6.28;;;28.50;99.90;;;;;;5001503;28;20685;-75
2022/05/13 10:50:56;;;;;;;6.07;5.47;;;28.40;99.90;;;;;;5002813;28;20473;-75
2022/05/13 10:53:37;;;;;;;7.82;5.43;;;28.30;99.90;;;;;;5000593;28;20231;-76
2022/05/13 10:56:12;;;;;;;6.75;6.05;;;28.20;99.90;;;;;;5008494;28;20215;-77
2022/05/13 10:58:49;;;;;;;6.35;5.32;;;28.60;99.90;;;;;;5008433;28;20200;-77
2022/05/13 11:01:32;;;;;;;7.07;5.65;;;28.80;99.90;;;;;;5003621;28;20224;-78
2022/05/13 11:04:01;;;;;;;9.85;6.07;;;28.90;99.90;;;;;;5003450;28;20197;-78
2022/05/13 11:06:47;;;;;;;9.00;5.25;;;28.80;99.90;;;;;;5003841;28;20730;-78
2022/05/13 11:09:24;;;;;;;5.55;4.68;;;28.70;99.90;;;;;;5004869;28;20203;-78
2022/05/13 11:11:56;;;;;;;5.68;5.05;;;28.50;99.90;;;;;;5002003;28;20242;-78
2022/05/13 11:14:39;;;;;;;5.15;4.65;;;28.70;99.90;;;;;;5003981;28;20243;-76
2022/05/13 11:17:15;;;;;;;4.40;3.97;;;29.10;99.90;;;;;;4997688;28;20227;-78
2022/05/13 11:19:50;;;;;;;5.32;4.68;;;29.40;99.90;;;;;;5000660;28;20250;-76
2022/05/13 11:22:26;;;;;;;6.35;5.20;;;29.60;99.90;;;;;;5001675;28;20231;-77
2022/05/13 11:28:04;;;;;;;8.93;5.57;;;29.30;99.90;;;;;;5000141;28;20198;-78
2022/05/13 11:30:43;;;;;;;5.68;5.18;;;29.20;99.90;;;;;;5002123;28;20223;-78
2022/05/13 11:33:25;;;;;;;5.57;5.07;;;29.10;99.90;;;;;;5007798;28;20562;-80
2022/05/13 11:36:06;;;;;;;7.70;5.50;;;29.20;99.90;;;;;;5000689;28;20266;-79
2022/05/13 11:39:10;;;;;;;5.80;5.30;;;29.10;99.90;;;;;;5006719;28;20329;-79
2022/05/13 11:41:45;;;;;;;5.85;5.35;;;29.00;99.90;;;;;;5000157;28;20326;-79
2022/05/13 11:44:13;;;;;;;6.30;5.72;;;29.00;99.90;;;;;;5002787;28;20620;-79
2022/05/13 11:46:51;;;;;;;6.00;5.22;;;28.90;99.90;;;;;;5002871;28;20342;-81
2022/05/13 11:49:25;;;;;;;5.28;4.82;;;28.90;99.90;;;;;;5006412;28;20235;-78
2022/05/13 11:51:53;;;;;;;7.15;5.40;;;29.00;99.90;;;;;;5000357;28;20589;-77
2022/05/13 11:54:24;;;;;;;5.45;4.95;;;28.90;99.90;;;;;;5006727;28;20235;-80
2022/05/13 11:57:12;;;;;;;12.00;5.45;;;28.90;99.90;;;;;;5004315;28;20220;-79
2022/05/13 11:59:46;;;;;;;5.93;5.32;;;29.20;99.90;;;;;;5004445;28;20234;-75
2022/05/13 12:02:35;;;;;;;5.53;5.00;;;29.30;99.90;;;;;;5003068;28;20238;-75
2022/05/13 12:05:08;;;;;;;6.60;5.25;;;29.40;99.90;;;;;;5001444;28;20189;-76
2022/05/13 12:07:40;;;;;;;10.32;5.53;;;29.30;99.90;;;;;;5001412;28;20606;-76
2022/05/13 12:10:11;;;;;;;5.60;5.10;;;29.40;99.90;;;;;;5004465;28;20193;-76
2022/05/13 12:12:51;;;;;;;7.28;5.38;;;29.60;99.90;;;;;;5006684;28;20521;-80
2022/05/13 12:15:34;;;;;;;6.07;5.10;;;29.70;99.90;;;;;;5000813;28;20994;-79
2022/05/13 12:18:11;;;;;;;6.80;4.97;;;30.00;99.90;;;;;;5002716;28;20284;-80
2022/05/13 12:20:46;;;;;;;7.78;5.28;;;30.00;99.90;;;;;;5007673;28;20694;-80
2022/05/13 12:23:20;;;;;;;6.20;5.10;;;30.20;99.90;;;;;;5003853;28;20223;-80
2022/05/13 12:25:53;;;;;;;8.45;5.35;;;30.00;99.90;;;;;;5002692;28;20259;-79
2022/05/13 12:29:00;;;;;;;5.22;4.55;;;30.00;99.90;;;;;;5003059;28;20203;-78
2022/05/13 12:31:45;;;;;;;6.05;5.22;;;29.90;99.90;;;;;;5011313;28;20234;-79
2022/05/13 12:40:29;;;;;;;5.35;4.88;;;29.50;99.90;;;;;;4963483;28;20449;-80
2022/05/13 12:43:01;;;;;;;5.35;4.93;;;29.70;99.90;;;;;;4956949;28;20232;-79
2022/05/13 12:45:57;;;;;;;5.97;5.38;;;29.90;99.90;;;;;;4985429;28;20200;-79
2022/05/13 12:48:25;;;;;;;5.78;5.07;;;29.80;99.90;;;;;;5000721;28;20224;-79
2022/05/13 12:51:15;;;;;;;5.38;4.88;;;29.70;99.90;;;;;;5005623;28;20200;-78
2022/05/13 12:53:49;;;;;;;7.53;4.50;;;29.50;99.90;;;;;;5001938;28;20266;-80
2022/05/13 12:56:29;;;;;;;5.45;4.93;;;29.50;99.90;;;;;;4999551;28;20206;-78
2022/05/13 12:59:02;;;;;;;5.50;4.80;;;29.70;99.90;;;;;;5004403;28;20715;-79
2022/05/13 13:01:31;;;;;;;6.88;4.63;;;29.70;99.90;;;;;;5002228;28;20224;-78
2022/05/13 13:03:58;;;;;;;4.88;4.43;;;29.60;99.90;;;;;;5000443;28;20224;-78
2022/05/13 13:06:38;;;;;;;5.30;4.07;;;29.40;99.90;;;;;;5002884;28;20201;-79
2022/05/13 13:09:15;;;;;;;5.97;5.10;;;29.30;99.90;;;;;;5001157;28;20219;-79
2022/05/13 13:11:50;;;;;;;5.82;4.95;;;29.50;99.90;;;;;;5003859;28;20274;-79
2022/05/13 13:14:22;;;;;;;6.32;4.78;;;29.70;99.90;;;;;;5002427;28;20290;-80
2022/05/13 13:16:57;;;;;;;6.97;4.53;;;29.40;99.90;;;;;;5007190;28;20204;-78
2022/05/13 13:19:26;;;;;;;5.25;4.80;;;29.10;99.90;;;;;;5004921;28;20215;-76
2022/05/13 13:21:59;;;;;;;5.07;4.25;;;28.90;99.90;;;;;;4998892;28;20224;-77
2022/05/13 13:24:29;;;;;;;6.03;4.32;;;29.20;99.90;;;;;;5000388;28;20219;-78
2022/05/13 13:26:58;;;;;;;7.28;4.40;;;29.60;99.90;;;;;;5004052;28;20277;-77
2022/05/13 13:29:28;;;;;;;4.70;4.30;;;29.80;99.90;;;;;;5001513;28;20690;-77
2022/05/13 13:31:59;;;;;;;7.63;4.93;;;29.90;99.90;;;;;;5001760;28;20216;-76
2022/05/13 13:34:33;;;;;;;6.70;4.97;;;29.90;99.90;;;;;;5002240;28;20297;-76
2022/05/13 13:37:02;;;;;;;5.60;4.55;;;29.90;99.90;;;;;;5002204;28;20204;-77
2022/05/13 13:39:31;;;;;;;6.43;4.43;;;29.60;99.90;;;;;;5003489;28;20220;-75
2022/05/13 13:42:02;;;;;;;5.60;5.10;;;29.40;99.90;;;;;;5021044;23;20223;-75